sensor_id;sensor_type;location;lat;lon;timestamp;P1;durP1;ratioP1;P2;durP2;ratioP2
12654;SDS011;6392;44.644;11.448;2023-03-23T00:02:19;20.60;;;15.07;;
12654;SDS011;6392;44.644;11.448;2023-03-23T00:04:49;20.27;;;15.83;;
12654;SDS011;6392;44.644;11.448;2023-03-23T00:07:18;19.83;;;15.00;;
12654;SDS011;6392;44.644;11.448;2023-03-23T00:09:46;21.20;;;15.93;;
12654;SDS011;6392;44.644;11.448;2023-03-23T00:12:18;21.60;;;15.80;;
12654;SDS011;6392;44.644;11.448;2023-03-23T00:14:46;24.57;;;16.33;;
12654;SDS011;6392;44.644;11.448;2023-03-23T00:17:13;22.93;;;16.23;;
12654;SDS011;6392;44.644;11.448;2023-03-23T00:19:40;20.40;;;15.57;;
12654;SDS011;6392;44.644;11.448;2023-03-23T00:22:14;23.70;;;17.03;;
12654;SDS011;6392;44.644;11.448;2023-03-23T00:24:44;17.90;;;14.03;;
12654;SDS011;6392;44.644;11.448;2023-03-23T00:27:11;23.77;;;16.27;;
12654;SDS011;6392;44.644;11.448;2023-03-23T00:29:39;22.30;;;15.07;;
12654;SDS011;6392;44.644;11.448;2023-03-23T00:32:07;21.00;;;15.47;;
12654;SDS011;6392;44.644;11.448;2023-03-23T00:34:37;19.03;;;15.03;;
12654;SDS011;6392;44.644;11.448;2023-03-23T00:37:05;19.63;;;14.63;;
12654;SDS011;6392;44.644;11.448;2023-03-23T00:39:34;16.83;;;12.87;;
12654;SDS011;6392;44.644;11.448;2023-03-23T00:42:02;25.27;;;17.40;;
12654;SDS011;6392;44.644;11.448;2023-03-23T00:44:30;28.47;;;19.97;;
12654;SDS011;6392;44.644;11.448;2023-03-23T00:47:00;28.00;;;19.10;;
12654;SDS011;6392;44.644;11.448;2023-03-23T00:49:28;25.13;;;17.73;;
12654;SDS011;6392;44.644;11.448;2023-03-23T00:51:55;22.40;;;16.93;;
12654;SDS011;6392;44.644;11.448;2023-03-23T00:54:24;21.77;;;15.63;;
12654;SDS011;6392;44.644;11.448;2023-03-23T00:56:53;23.33;;;16.50;;
12654;SDS011;6392;44.644;11.448;2023-03-23T00:59:20;22.87;;;14.87;;
12654;SDS011;6392;44.644;11.448;2023-03-23T01:01:48;22.40;;;15.63;;
12654;SDS011;6392;44.644;11.448;2023-03-23T01:04:15;20.33;;;14.83;;
12654;SDS011;6392;44.644;11.448;2023-03-23T01:06:43;18.37;;;14.33;;
12654;SDS011;6392;44.644;11.448;2023-03-23T01:09:11;19.80;;;14.80;;
12654;SDS011;6392;44.644;11.448;2023-03-23T01:11:41;14.50;;;11.33;;
12654;SDS011;6392;44.644;11.448;2023-03-23T01:14:10;21.87;;;12.80;;
12654;SDS011;6392;44.644;11.448;2023-03-23T01:16:38;16.20;;;12.33;;
12654;SDS011;6392;44.644;11.448;2023-03-23T01:19:05;17.30;;;13.00;;
12654;SDS011;6392;44.644;11.448;2023-03-23T01:21:32;19.60;;;13.33;;
12654;SDS011;6392;44.644;11.448;2023-03-23T01:24:00;19.53;;;13.57;;
12654;SDS011;6392;44.644;11.448;2023-03-23T01:26:28;16.87;;;12.07;;
12654;SDS011;6392;44.644;11.448;2023-03-23T01:28:55;18.87;;;13.47;;
12654;SDS011;6392;44.644;11.448;2023-03-23T01:31:25;15.60;;;12.70;;
12654;SDS011;6392;44.644;11.448;2023-03-23T01:33:52;20.63;;;14.80;;
12654;SDS011;6392;44.644;11.448;2023-03-23T01:36:21;17.03;;;11.63;;
12654;SDS011;6392;44.644;11.448;2023-03-23T01:38:50;15.73;;;12.80;;
12654;SDS011;6392;44.644;11.448;2023-03-23T01:41:17;18.60;;;13.93;;
12654;SDS011;6392;44.644;11.448;2023-03-23T01:43:55;19.07;;;13.37;;
12654;SDS011;6392;44.644;11.448;2023-03-23T01:46:29;16.57;;;12.77;;
12654;SDS011;6392;44.644;11.448;2023-03-23T01:48:58;13.57;;;10.37;;
12654;SDS011;6392;44.644;11.448;2023-03-23T01:51:31;15.33;;;9.80;;
12654;SDS011;6392;44.644;11.448;2023-03-23T01:54:04;12.00;;;9.53;;
12654;SDS011;6392;44.644;11.448;2023-03-23T01:56:36;12.67;;;9.93;;
12654;SDS011;6392;44.644;11.448;2023-03-23T01:59:09;15.53;;;11.83;;
12654;SDS011;6392;44.644;11.448;2023-03-23T02:01:38;16.87;;;11.40;;
12654;SDS011;6392;44.644;11.448;2023-03-23T02:04:10;16.67;;;12.13;;
12654;SDS011;6392;44.644;11.448;2023-03-23T02:06:38;19.70;;;13.40;;
12654;SDS011;6392;44.644;11.448;2023-03-23T02:09:05;20.57;;;12.97;;
12654;SDS011;6392;44.644;11.448;2023-03-23T02:11:32;21.40;;;13.73;;
12654;SDS011;6392;44.644;11.448;2023-03-23T02:13:59;20.43;;;14.73;;
12654;SDS011;6392;44.644;11.448;2023-03-23T02:16:30;18.43;;;13.70;;
12654;SDS011;6392;44.644;11.448;2023-03-23T02:19:10;18.27;;;12.37;;
12654;SDS011;6392;44.644;11.448;2023-03-23T02:22:04;15.83;;;11.70;;
12654;SDS011;6392;44.644;11.448;2023-03-23T02:24:53;18.27;;;12.83;;
12654;SDS011;6392;44.644;11.448;2023-03-23T02:27:39;17.30;;;11.63;;
12654;SDS011;6392;44.644;11.448;2023-03-23T02:30:37;16.87;;;11.23;;
12654;SDS011;6392;44.644;11.448;2023-03-23T02:33:18;17.67;;;12.03;;
12654;SDS011;6392;44.644;11.448;2023-03-23T02:35:56;15.87;;;11.57;;
12654;SDS011;6392;44.644;11.448;2023-03-23T02:38:28;15.60;;;11.00;;
12654;SDS011;6392;44.644;11.448;2023-03-23T02:41:00;18.03;;;10.73;;
12654;SDS011;6392;44.644;11.448;2023-03-23T02:43:30;11.97;;;9.57;;
12654;SDS011;6392;44.644;11.448;2023-03-23T02:46:01;15.37;;;10.57;;
12654;SDS011;6392;44.644;11.448;2023-03-23T02:48:34;11.17;;;9.17;;
12654;SDS011;6392;44.644;11.448;2023-03-23T02:51:05;13.53;;;9.67;;
12654;SDS011;6392;44.644;11.448;2023-03-23T02:53:34;15.10;;;10.37;;
12654;SDS011;6392;44.644;11.448;2023-03-23T02:56:06;12.97;;;9.77;;
12654;SDS011;6392;44.644;11.448;2023-03-23T02:58:35;16.77;;;11.43;;
12654;SDS011;6392;44.644;11.448;2023-03-23T03:01:12;13.50;;;10.53;;
12654;SDS011;6392;44.644;11.448;2023-03-23T03:04:04;16.70;;;11.30;;
12654;SDS011;6392;44.644;11.448;2023-03-23T03:06:35;14.43;;;10.93;;
12654;SDS011;6392;44.644;11.448;2023-03-23T03:09:07;16.30;;;11.63;;
12654;SDS011;6392;44.644;11.448;2023-03-23T03:11:41;12.13;;;8.97;;
12654;SDS011;6392;44.644;11.448;2023-03-23T03:14:13;13.37;;;9.73;;
12654;SDS011;6392;44.644;11.448;2023-03-23T03:16:48;15.27;;;10.23;;
12654;SDS011;6392;44.644;11.448;2023-03-23T03:19:22;11.83;;;8.43;;
12654;SDS011;6392;44.644;11.448;2023-03-23T03:21:53;12.17;;;9.47;;
12654;SDS011;6392;44.644;11.448;2023-03-23T03:24:22;11.90;;;8.43;;
12654;SDS011;6392;44.644;11.448;2023-03-23T03:26:52;10.40;;;8.13;;
12654;SDS011;6392;44.644;11.448;2023-03-23T03:29:23;10.97;;;8.63;;
12654;SDS011;6392;44.644;11.448;2023-03-23T03:31:54;12.60;;;7.50;;
12654;SDS011;6392;44.644;11.448;2023-03-23T03:34:25;13.10;;;8.87;;
12654;SDS011;6392;44.644;11.448;2023-03-23T03:36:53;10.17;;;8.30;;
12654;SDS011;6392;44.644;11.448;2023-03-23T03:39:25;13.73;;;9.27;;
12654;SDS011;6392;44.644;11.448;2023-03-23T03:41:52;11.37;;;8.93;;
12654;SDS011;6392;44.644;11.448;2023-03-23T03:44:20;15.97;;;10.10;;
12654;SDS011;6392;44.644;11.448;2023-03-23T03:46:47;12.77;;;9.67;;
12654;SDS011;6392;44.644;11.448;2023-03-23T03:49:14;11.40;;;8.37;;
12654;SDS011;6392;44.644;11.448;2023-03-23T03:51:43;11.93;;;8.87;;
12654;SDS011;6392;44.644;11.448;2023-03-23T03:54:10;13.60;;;9.40;;
12654;SDS011;6392;44.644;11.448;2023-03-23T03:56:37;17.77;;;10.23;;
12654;SDS011;6392;44.644;11.448;2023-03-23T03:59:05;14.47;;;10.30;;
12654;SDS011;6392;44.644;11.448;2023-03-23T04:01:34;14.30;;;10.70;;
12654;SDS011;6392;44.644;11.448;2023-03-23T04:04:02;13.43;;;10.30;;
12654;SDS011;6392;44.644;11.448;2023-03-23T04:06:31;15.13;;;11.13;;
12654;SDS011;6392;44.644;11.448;2023-03-23T04:09:02;15.73;;;11.27;;
12654;SDS011;6392;44.644;11.448;2023-03-23T04:11:32;15.20;;;10.63;;
12654;SDS011;6392;44.644;11.448;2023-03-23T04:13:59;13.43;;;10.07;;
12654;SDS011;6392;44.644;11.448;2023-03-23T04:16:27;14.07;;;10.00;;
12654;SDS011;6392;44.644;11.448;2023-03-23T04:18:55;14.50;;;9.03;;
12654;SDS011;6392;44.644;11.448;2023-03-23T04:21:22;12.87;;;8.40;;
12654;SDS011;6392;44.644;11.448;2023-03-23T04:23:54;16.90;;;9.83;;
12654;SDS011;6392;44.644;11.448;2023-03-23T04:26:25;14.20;;;9.37;;
12654;SDS011;6392;44.644;11.448;2023-03-23T04:28:53;14.50;;;9.73;;
12654;SDS011;6392;44.644;11.448;2023-03-23T04:31:21;14.97;;;9.50;;
12654;SDS011;6392;44.644;11.448;2023-03-23T04:33:49;12.33;;;9.70;;
12654;SDS011;6392;44.644;11.448;2023-03-23T04:36:18;14.03;;;9.27;;
12654;SDS011;6392;44.644;11.448;2023-03-23T04:38:47;12.93;;;9.43;;
12654;SDS011;6392;44.644;11.448;2023-03-23T04:41:16;11.10;;;8.60;;
12654;SDS011;6392;44.644;11.448;2023-03-23T04:43:44;13.23;;;8.73;;
12654;SDS011;6392;44.644;11.448;2023-03-23T04:46:11;13.10;;;8.27;;
12654;SDS011;6392;44.644;11.448;2023-03-23T04:48:43;10.50;;;7.63;;
12654;SDS011;6392;44.644;11.448;2023-03-23T04:51:10;11.17;;;6.80;;
12654;SDS011;6392;44.644;11.448;2023-03-23T04:53:38;9.40;;;7.13;;
12654;SDS011;6392;44.644;11.448;2023-03-23T04:56:06;10.27;;;7.23;;
12654;SDS011;6392;44.644;11.448;2023-03-23T04:58:33;8.33;;;6.57;;
12654;SDS011;6392;44.644;11.448;2023-03-23T05:01:01;8.33;;;5.80;;
12654;SDS011;6392;44.644;11.448;2023-03-23T05:03:30;7.20;;;5.47;;
12654;SDS011;6392;44.644;11.448;2023-03-23T05:05:57;7.90;;;5.50;;
12654;SDS011;6392;44.644;11.448;2023-03-23T05:08:27;6.10;;;5.10;;
12654;SDS011;6392;44.644;11.448;2023-03-23T05:10:56;8.50;;;5.33;;
12654;SDS011;6392;44.644;11.448;2023-03-23T05:13:25;6.97;;;5.40;;
12654;SDS011;6392;44.644;11.448;2023-03-23T05:15:53;7.60;;;5.47;;
12654;SDS011;6392;44.644;11.448;2023-03-23T05:18:22;7.77;;;5.20;;
12654;SDS011;6392;44.644;11.448;2023-03-23T05:20:49;7.23;;;5.37;;
12654;SDS011;6392;44.644;11.448;2023-03-23T05:23:18;12.90;;;6.03;;
12654;SDS011;6392;44.644;11.448;2023-03-23T05:25:52;9.43;;;5.57;;
12654;SDS011;6392;44.644;11.448;2023-03-23T05:28:19;6.47;;;4.80;;
12654;SDS011;6392;44.644;11.448;2023-03-23T05:30:47;8.20;;;5.63;;
12654;SDS011;6392;44.644;11.448;2023-03-23T05:33:14;9.53;;;5.53;;
12654;SDS011;6392;44.644;11.448;2023-03-23T05:35:42;8.40;;;5.27;;
12654;SDS011;6392;44.644;11.448;2023-03-23T05:38:12;8.30;;;5.67;;
12654;SDS011;6392;44.644;11.448;2023-03-23T05:40:39;6.30;;;5.23;;
12654;SDS011;6392;44.644;11.448;2023-03-23T05:43:07;8.60;;;6.03;;
12654;SDS011;6392;44.644;11.448;2023-03-23T05:45:34;9.40;;;6.40;;
12654;SDS011;6392;44.644;11.448;2023-03-23T05:48:02;11.33;;;6.53;;
12654;SDS011;6392;44.644;11.448;2023-03-23T05:50:29;8.73;;;6.80;;
12654;SDS011;6392;44.644;11.448;2023-03-23T05:52:57;9.27;;;7.37;;
12654;SDS011;6392;44.644;11.448;2023-03-23T05:55:24;9.87;;;6.23;;
12654;SDS011;6392;44.644;11.448;2023-03-23T05:57:51;11.30;;;6.37;;
12654;SDS011;6392;44.644;11.448;2023-03-23T06:00:19;12.50;;;7.03;;
12654;SDS011;6392;44.644;11.448;2023-03-23T06:02:48;9.60;;;6.90;;
12654;SDS011;6392;44.644;11.448;2023-03-23T06:05:16;10.27;;;6.97;;
12654;SDS011;6392;44.644;11.448;2023-03-23T06:07:44;9.40;;;7.43;;
12654;SDS011;6392;44.644;11.448;2023-03-23T06:10:13;11.43;;;7.33;;
12654;SDS011;6392;44.644;11.448;2023-03-23T06:12:40;10.77;;;7.37;;
12654;SDS011;6392;44.644;11.448;2023-03-23T06:15:08;11.43;;;7.30;;
12654;SDS011;6392;44.644;11.448;2023-03-23T06:17:36;10.10;;;8.07;;
12654;SDS011;6392;44.644;11.448;2023-03-23T06:20:04;13.60;;;7.90;;
12654;SDS011;6392;44.644;11.448;2023-03-23T06:22:35;14.00;;;8.40;;
12654;SDS011;6392;44.644;11.448;2023-03-23T06:25:04;12.70;;;8.80;;
12654;SDS011;6392;44.644;11.448;2023-03-23T06:27:34;16.30;;;8.97;;
12654;SDS011;6392;44.644;11.448;2023-03-23T06:30:01;12.00;;;9.70;;
12654;SDS011;6392;44.644;11.448;2023-03-23T06:32:29;12.33;;;9.30;;
12654;SDS011;6392;44.644;11.448;2023-03-23T06:34:57;12.43;;;9.43;;
12654;SDS011;6392;44.644;11.448;2023-03-23T06:37:25;14.53;;;9.33;;
12654;SDS011;6392;44.644;11.448;2023-03-23T06:39:52;13.50;;;9.40;;
12654;SDS011;6392;44.644;11.448;2023-03-23T06:42:21;11.80;;;9.57;;
12654;SDS011;6392;44.644;11.448;2023-03-23T06:44:50;12.63;;;9.87;;
12654;SDS011;6392;44.644;11.448;2023-03-23T06:47:21;15.23;;;9.40;;
12654;SDS011;6392;44.644;11.448;2023-03-23T06:49:49;12.93;;;9.60;;
12654;SDS011;6392;44.644;11.448;2023-03-23T06:52:16;11.77;;;8.70;;
12654;SDS011;6392;44.644;11.448;2023-03-23T06:54:43;12.33;;;9.43;;
12654;SDS011;6392;44.644;11.448;2023-03-23T06:57:10;12.70;;;9.30;;
12654;SDS011;6392;44.644;11.448;2023-03-23T06:59:37;14.67;;;9.67;;
12654;SDS011;6392;44.644;11.448;2023-03-23T07:02:08;14.73;;;8.90;;
12654;SDS011;6392;44.644;11.448;2023-03-23T07:04:36;12.80;;;9.00;;
12654;SDS011;6392;44.644;11.448;2023-03-23T07:07:03;13.40;;;8.40;;
12654;SDS011;6392;44.644;11.448;2023-03-23T07:09:30;12.63;;;8.37;;
12654;SDS011;6392;44.644;11.448;2023-03-23T07:11:57;12.23;;;7.97;;
12654;SDS011;6392;44.644;11.448;2023-03-23T07:14:24;9.73;;;7.87;;
12654;SDS011;6392;44.644;11.448;2023-03-23T07:16:51;10.90;;;7.07;;
12654;SDS011;6392;44.644;11.448;2023-03-23T07:19:20;8.93;;;6.80;;
12654;SDS011;6392;44.644;11.448;2023-03-23T07:21:48;7.93;;;5.90;;
12654;SDS011;6392;44.644;11.448;2023-03-23T07:24:15;6.57;;;5.10;;
12654;SDS011;6392;44.644;11.448;2023-03-23T07:26:43;8.30;;;5.67;;
12654;SDS011;6392;44.644;11.448;2023-03-23T07:29:11;9.00;;;4.97;;
12654;SDS011;6392;44.644;11.448;2023-03-23T07:31:38;7.57;;;4.80;;
12654;SDS011;6392;44.644;11.448;2023-03-23T07:34:06;7.57;;;5.03;;
12654;SDS011;6392;44.644;11.448;2023-03-23T07:36:34;6.67;;;4.80;;
12654;SDS011;6392;44.644;11.448;2023-03-23T07:39:02;5.93;;;4.73;;
12654;SDS011;6392;44.644;11.448;2023-03-23T07:41:30;5.77;;;4.47;;
12654;SDS011;6392;44.644;11.448;2023-03-23T07:43:57;6.57;;;4.60;;
12654;SDS011;6392;44.644;11.448;2023-03-23T07:46:25;6.53;;;4.70;;
12654;SDS011;6392;44.644;11.448;2023-03-23T07:48:51;7.40;;;4.70;;
12654;SDS011;6392;44.644;11.448;2023-03-23T07:51:19;7.07;;;4.87;;
12654;SDS011;6392;44.644;11.448;2023-03-23T07:53:48;7.90;;;4.40;;
12654;SDS011;6392;44.644;11.448;2023-03-23T07:56:15;9.63;;;4.63;;
12654;SDS011;6392;44.644;11.448;2023-03-23T07:58:44;9.77;;;5.40;;
12654;SDS011;6392;44.644;11.448;2023-03-23T08:01:11;8.53;;;4.70;;
12654;SDS011;6392;44.644;11.448;2023-03-23T08:03:38;7.07;;;4.73;;
12654;SDS011;6392;44.644;11.448;2023-03-23T08:06:06;6.53;;;4.67;;
12654;SDS011;6392;44.644;11.448;2023-03-23T08:08:33;7.60;;;4.17;;
12654;SDS011;6392;44.644;11.448;2023-03-23T08:11:03;6.50;;;4.67;;
12654;SDS011;6392;44.644;11.448;2023-03-23T08:13:31;7.40;;;4.90;;
12654;SDS011;6392;44.644;11.448;2023-03-23T08:15:59;8.63;;;5.53;;
12654;SDS011;6392;44.644;11.448;2023-03-23T08:18:28;12.60;;;6.53;;
12654;SDS011;6392;44.644;11.448;2023-03-23T08:20:55;9.80;;;6.27;;
12654;SDS011;6392;44.644;11.448;2023-03-23T08:23:22;11.30;;;6.43;;
12654;SDS011;6392;44.644;11.448;2023-03-23T08:25:49;11.60;;;6.77;;
12654;SDS011;6392;44.644;11.448;2023-03-23T08:28:18;12.50;;;7.43;;
12654;SDS011;6392;44.644;11.448;2023-03-23T08:30:45;17.37;;;9.10;;
12654;SDS011;6392;44.644;11.448;2023-03-23T08:33:12;14.90;;;8.80;;
12654;SDS011;6392;44.644;11.448;2023-03-23T08:35:39;15.43;;;8.77;;
12654;SDS011;6392;44.644;11.448;2023-03-23T08:38:08;14.77;;;9.33;;
12654;SDS011;6392;44.644;11.448;2023-03-23T08:40:35;18.97;;;8.40;;
12654;SDS011;6392;44.644;11.448;2023-03-23T08:43:02;14.27;;;8.43;;
12654;SDS011;6392;44.644;11.448;2023-03-23T08:45:30;16.87;;;8.80;;
12654;SDS011;6392;44.644;11.448;2023-03-23T08:47:58;12.63;;;7.47;;
12654;SDS011;6392;44.644;11.448;2023-03-23T08:50:26;15.57;;;9.10;;
12654;SDS011;6392;44.644;11.448;2023-03-23T08:52:55;17.30;;;8.43;;
12654;SDS011;6392;44.644;11.448;2023-03-23T08:55:23;13.47;;;8.77;;
12654;SDS011;6392;44.644;11.448;2023-03-23T08:57:51;18.80;;;11.20;;
12654;SDS011;6392;44.644;11.448;2023-03-23T09:00:19;19.93;;;10.97;;
12654;SDS011;6392;44.644;11.448;2023-03-23T09:02:52;19.17;;;11.37;;
12654;SDS011;6392;44.644;11.448;2023-03-23T09:05:22;19.90;;;10.97;;
12654;SDS011;6392;44.644;11.448;2023-03-23T09:07:51;16.57;;;11.17;;
12654;SDS011;6392;44.644;11.448;2023-03-23T09:10:20;17.57;;;10.53;;
12654;SDS011;6392;44.644;11.448;2023-03-23T09:12:49;19.73;;;11.47;;
12654;SDS011;6392;44.644;11.448;2023-03-23T09:15:17;22.20;;;12.60;;
12654;SDS011;6392;44.644;11.448;2023-03-23T09:17:45;22.07;;;13.10;;
12654;SDS011;6392;44.644;11.448;2023-03-23T09:20:16;22.27;;;13.43;;
12654;SDS011;6392;44.644;11.448;2023-03-23T09:22:46;21.77;;;12.13;;
12654;SDS011;6392;44.644;11.448;2023-03-23T09:25:15;21.10;;;12.77;;
12654;SDS011;6392;44.644;11.448;2023-03-23T09:27:45;22.07;;;13.97;;
12654;SDS011;6392;44.644;11.448;2023-03-23T09:30:17;21.93;;;13.63;;
12654;SDS011;6392;44.644;11.448;2023-03-23T09:32:45;21.77;;;12.17;;
12654;SDS011;6392;44.644;11.448;2023-03-23T09:35:15;21.37;;;12.37;;
12654;SDS011;6392;44.644;11.448;2023-03-23T09:37:42;20.77;;;13.10;;
12654;SDS011;6392;44.644;11.448;2023-03-23T09:40:11;20.47;;;12.33;;
12654;SDS011;6392;44.644;11.448;2023-03-23T09:42:45;21.37;;;12.43;;
12654;SDS011;6392;44.644;11.448;2023-03-23T09:45:30;20.73;;;11.77;;
12654;SDS011;6392;44.644;11.448;2023-03-23T09:48:10;18.23;;;11.50;;
12654;SDS011;6392;44.644;11.448;2023-03-23T09:50:52;23.20;;;13.27;;
12654;SDS011;6392;44.644;11.448;2023-03-23T09:53:27;25.83;;;14.33;;
12654;SDS011;6392;44.644;11.448;2023-03-23T09:56:00;28.13;;;15.17;;
12654;SDS011;6392;44.644;11.448;2023-03-23T09:58:29;26.70;;;13.53;;
12654;SDS011;6392;44.644;11.448;2023-03-23T10:01:00;30.30;;;15.17;;
12654;SDS011;6392;44.644;11.448;2023-03-23T10:03:31;26.37;;;14.53;;
12654;SDS011;6392;44.644;11.448;2023-03-23T10:06:04;25.53;;;14.47;;
12654;SDS011;6392;44.644;11.448;2023-03-23T10:08:34;26.33;;;13.73;;
12654;SDS011;6392;44.644;11.448;2023-03-23T10:11:02;23.83;;;14.93;;
12654;SDS011;6392;44.644;11.448;2023-03-23T10:13:42;22.40;;;13.50;;
12654;SDS011;6392;44.644;11.448;2023-03-23T10:16:25;25.17;;;14.20;;
12654;SDS011;6392;44.644;11.448;2023-03-23T10:18:56;27.00;;;13.83;;
12654;SDS011;6392;44.644;11.448;2023-03-23T10:21:30;27.47;;;15.97;;
12654;SDS011;6392;44.644;11.448;2023-03-23T10:24:03;25.70;;;14.60;;
12654;SDS011;6392;44.644;11.448;2023-03-23T10:26:37;28.57;;;16.30;;
12654;SDS011;6392;44.644;11.448;2023-03-23T10:29:13;26.07;;;14.60;;
12654;SDS011;6392;44.644;11.448;2023-03-23T10:31:45;31.43;;;15.83;;
12654;SDS011;6392;44.644;11.448;2023-03-23T10:34:17;29.73;;;16.80;;
12654;SDS011;6392;44.644;11.448;2023-03-23T10:36:55;32.13;;;16.90;;
12654;SDS011;6392;44.644;11.448;2023-03-23T10:39:28;29.80;;;16.83;;
12654;SDS011;6392;44.644;11.448;2023-03-23T10:41:59;33.97;;;16.87;;
12654;SDS011;6392;44.644;11.448;2023-03-23T10:44:32;31.70;;;16.83;;
12654;SDS011;6392;44.644;11.448;2023-03-23T10:47:00;30.27;;;16.77;;
12654;SDS011;6392;44.644;11.448;2023-03-23T10:49:30;28.30;;;16.60;;
12654;SDS011;6392;44.644;11.448;2023-03-23T10:52:07;27.93;;;17.53;;
12654;SDS011;6392;44.644;11.448;2023-03-23T10:54:46;29.97;;;17.47;;
12654;SDS011;6392;44.644;11.448;2023-03-23T10:57:20;33.07;;;19.03;;
12654;SDS011;6392;44.644;11.448;2023-03-23T10:59:49;30.10;;;17.70;;
12654;SDS011;6392;44.644;11.448;2023-03-23T11:02:18;33.43;;;18.67;;
12654;SDS011;6392;44.644;11.448;2023-03-23T11:04:47;33.77;;;18.83;;
12654;SDS011;6392;44.644;11.448;2023-03-23T11:07:27;33.03;;;19.77;;
12654;SDS011;6392;44.644;11.448;2023-03-23T11:10:07;31.57;;;17.40;;
12654;SDS011;6392;44.644;11.448;2023-03-23T11:12:43;33.13;;;17.93;;
12654;SDS011;6392;44.644;11.448;2023-03-23T11:15:21;32.67;;;17.77;;
12654;SDS011;6392;44.644;11.448;2023-03-23T11:17:56;30.83;;;17.00;;
12654;SDS011;6392;44.644;11.448;2023-03-23T11:20:25;30.90;;;16.37;;
12654;SDS011;6392;44.644;11.448;2023-03-23T11:22:54;30.47;;;15.03;;
12654;SDS011;6392;44.644;11.448;2023-03-23T11:25:22;22.07;;;12.43;;
12654;SDS011;6392;44.644;11.448;2023-03-23T11:27:51;28.10;;;13.70;;
12654;SDS011;6392;44.644;11.448;2023-03-23T11:30:21;29.27;;;13.90;;
12654;SDS011;6392;44.644;11.448;2023-03-23T11:32:52;23.93;;;12.77;;
12654;SDS011;6392;44.644;11.448;2023-03-23T11:35:21;20.97;;;11.33;;
12654;SDS011;6392;44.644;11.448;2023-03-23T11:37:50;20.57;;;11.57;;
12654;SDS011;6392;44.644;11.448;2023-03-23T11:40:21;26.80;;;14.73;;
12654;SDS011;6392;44.644;11.448;2023-03-23T11:42:56;26.27;;;14.67;;
12654;SDS011;6392;44.644;11.448;2023-03-23T11:45:27;29.13;;;14.60;;
12654;SDS011;6392;44.644;11.448;2023-03-23T11:48:01;22.67;;;13.30;;
12654;SDS011;6392;44.644;11.448;2023-03-23T11:50:44;29.10;;;14.60;;
12654;SDS011;6392;44.644;11.448;2023-03-23T11:53:15;28.23;;;14.77;;
12654;SDS011;6392;44.644;11.448;2023-03-23T11:56:04;26.03;;;15.97;;
12654;SDS011;6392;44.644;11.448;2023-03-23T11:58:37;27.03;;;14.33;;
12654;SDS011;6392;44.644;11.448;2023-03-23T12:01:05;25.03;;;14.37;;
12654;SDS011;6392;44.644;11.448;2023-03-23T12:03:47;30.73;;;16.53;;
12654;SDS011;6392;44.644;11.448;2023-03-23T12:06:27;29.53;;;15.13;;
12654;SDS011;6392;44.644;11.448;2023-03-23T12:09:03;27.67;;;14.27;;
12654;SDS011;6392;44.644;11.448;2023-03-23T12:11:45;26.27;;;14.03;;
12654;SDS011;6392;44.644;11.448;2023-03-23T12:14:24;27.03;;;14.87;;
12654;SDS011;6392;44.644;11.448;2023-03-23T12:16:58;26.03;;;13.60;;
12654;SDS011;6392;44.644;11.448;2023-03-23T12:19:33;24.10;;;12.27;;
12654;SDS011;6392;44.644;11.448;2023-03-23T12:22:09;25.77;;;14.23;;
12654;SDS011;6392;44.644;11.448;2023-03-23T12:24:52;22.07;;;12.60;;
12654;SDS011;6392;44.644;11.448;2023-03-23T12:27:32;22.93;;;12.40;;
12654;SDS011;6392;44.644;11.448;2023-03-23T12:30:09;19.53;;;10.97;;
12654;SDS011;6392;44.644;11.448;2023-03-23T12:32:52;24.90;;;13.97;;
12654;SDS011;6392;44.644;11.448;2023-03-23T12:35:44;25.80;;;15.60;;
12654;SDS011;6392;44.644;11.448;2023-03-23T12:38:21;23.87;;;14.77;;
12654;SDS011;6392;44.644;11.448;2023-03-23T12:41:03;20.13;;;12.10;;
12654;SDS011;6392;44.644;11.448;2023-03-23T12:43:42;27.83;;;15.10;;
12654;SDS011;6392;44.644;11.448;2023-03-23T12:46:25;26.43;;;14.77;;
12654;SDS011;6392;44.644;11.448;2023-03-23T12:49:09;31.23;;;18.23;;
12654;SDS011;6392;44.644;11.448;2023-03-23T12:51:42;30.73;;;17.20;;
12654;SDS011;6392;44.644;11.448;2023-03-23T12:54:15;31.80;;;19.53;;
12654;SDS011;6392;44.644;11.448;2023-03-23T12:56:52;29.57;;;16.67;;
12654;SDS011;6392;44.644;11.448;2023-03-23T12:59:28;30.53;;;17.33;;
12654;SDS011;6392;44.644;11.448;2023-03-23T13:02:05;30.00;;;16.57;;
12654;SDS011;6392;44.644;11.448;2023-03-23T13:04:39;27.80;;;15.10;;
12654;SDS011;6392;44.644;11.448;2023-03-23T13:07:10;27.53;;;14.33;;
12654;SDS011;6392;44.644;11.448;2023-03-23T13:09:44;25.30;;;14.20;;
12654;SDS011;6392;44.644;11.448;2023-03-23T13:12:15;25.00;;;14.10;;
12654;SDS011;6392;44.644;11.448;2023-03-23T13:14:47;22.43;;;12.70;;
12654;SDS011;6392;44.644;11.448;2023-03-23T13:17:28;27.53;;;15.87;;
12654;SDS011;6392;44.644;11.448;2023-03-23T13:20:15;30.30;;;16.63;;
12654;SDS011;6392;44.644;11.448;2023-03-23T13:23:02;31.43;;;13.60;;
12654;SDS011;6392;44.644;11.448;2023-03-23T13:25:41;26.03;;;14.07;;
12654;SDS011;6392;44.644;11.448;2023-03-23T13:28:17;23.97;;;13.77;;
12654;SDS011;6392;44.644;11.448;2023-03-23T13:30:57;25.67;;;14.43;;
12654;SDS011;6392;44.644;11.448;2023-03-23T13:33:28;23.47;;;14.30;;
12654;SDS011;6392;44.644;11.448;2023-03-23T13:36:01;27.03;;;15.00;;
12654;SDS011;6392;44.644;11.448;2023-03-23T13:38:32;27.70;;;13.13;;
12654;SDS011;6392;44.644;11.448;2023-03-23T13:41:05;26.80;;;15.30;;
12654;SDS011;6392;44.644;11.448;2023-03-23T13:43:34;25.43;;;15.93;;
12654;SDS011;6392;44.644;11.448;2023-03-23T13:46:07;27.80;;;15.30;;
12654;SDS011;6392;44.644;11.448;2023-03-23T13:48:45;24.27;;;15.17;;
12654;SDS011;6392;44.644;11.448;2023-03-23T13:51:26;23.57;;;14.03;;
12654;SDS011;6392;44.644;11.448;2023-03-23T13:54:12;23.77;;;13.83;;
12654;SDS011;6392;44.644;11.448;2023-03-23T13:56:47;26.60;;;13.53;;
12654;SDS011;6392;44.644;11.448;2023-03-23T13:59:28;23.80;;;13.07;;
12654;SDS011;6392;44.644;11.448;2023-03-23T14:05:09;23.03;;;12.77;;
12654;SDS011;6392;44.644;11.448;2023-03-23T14:07:51;23.53;;;13.27;;
12654;SDS011;6392;44.644;11.448;2023-03-23T14:10:25;26.63;;;14.33;;
12654;SDS011;6392;44.644;11.448;2023-03-23T14:12:58;20.87;;;12.30;;
12654;SDS011;6392;44.644;11.448;2023-03-23T14:15:28;23.00;;;13.50;;
12654;SDS011;6392;44.644;11.448;2023-03-23T14:17:58;21.57;;;12.20;;
12654;SDS011;6392;44.644;11.448;2023-03-23T14:20:30;24.20;;;13.13;;
12654;SDS011;6392;44.644;11.448;2023-03-23T14:22:59;19.97;;;12.07;;
12654;SDS011;6392;44.644;11.448;2023-03-23T14:25:27;21.57;;;12.40;;
12654;SDS011;6392;44.644;11.448;2023-03-23T14:27:57;25.13;;;14.20;;
12654;SDS011;6392;44.644;11.448;2023-03-23T14:30:26;24.73;;;13.27;;
12654;SDS011;6392;44.644;11.448;2023-03-23T14:33:04;24.70;;;15.20;;
12654;SDS011;6392;44.644;11.448;2023-03-23T14:35:34;25.13;;;14.47;;
12654;SDS011;6392;44.644;11.448;2023-03-23T14:38:03;23.87;;;13.90;;
12654;SDS011;6392;44.644;11.448;2023-03-23T14:40:35;22.70;;;13.80;;
12654;SDS011;6392;44.644;11.448;2023-03-23T14:43:02;25.00;;;14.03;;
12654;SDS011;6392;44.644;11.448;2023-03-23T14:45:30;25.30;;;14.60;;
12654;SDS011;6392;44.644;11.448;2023-03-23T14:48:00;27.37;;;14.10;;
12654;SDS011;6392;44.644;11.448;2023-03-23T14:50:30;20.27;;;12.00;;
12654;SDS011;6392;44.644;11.448;2023-03-23T14:53:07;26.27;;;12.73;;
12654;SDS011;6392;44.644;11.448;2023-03-23T14:55:41;22.80;;;12.73;;